Time;durP1;ratioP1;P1;durP2;ratioP2;P2;SDS_P1;SDS_P2;PMS_P1;PMS_P2;Temp;Humidity;BMP_temperature;BMP_pressure;BME280_temperature;BME280_humidity;BME280_pressure;Samples;Min_cycle;Max_cycle;Signal;HPM_P1;HPM_P2
2021/11/30 00:01:44;;;;;;;14.32;10.73;;;25.10;99.90;;;;;;5070983;28;20021;-67
2021/11/30 00:04:16;;;;;;;14.98;7.97;;;25.00;99.90;;;;;;5062729;28;20106;-75
2021/11/30 00:06:45;;;;;;;9.98;7.53;;;24.90;99.90;;;;;;5070408;28;20040;-71
2021/11/30 00:12:21;;;;;;;11.40;7.68;;;24.90;99.90;;;;;;5065074;28;20031;-75
2021/11/30 00:14:51;;;;;;;15.98;8.20;;;24.90;99.90;;;;;;5065120;28;20029;-71
2021/11/30 00:17:19;;;;;;;12.25;7.57;;;24.70;99.90;;;;;;5071129;28;20123;-75
2021/11/30 00:19:49;;;;;;;11.65;8.05;;;24.60;99.90;;;;;;5070952;28;20475;-67
2021/11/30 00:22:19;;;;;;;11.57;7.60;;;24.50;99.90;;;;;;5067881;28;20100;-67
2021/11/30 00:24:47;;;;;;;10.75;7.57;;;24.50;99.90;;;;;;5053050;28;20024;-67
2021/11/30 00:27:16;;;;;;;11.95;7.97;;;24.40;99.90;;;;;;5070786;28;20048;-67
2021/11/30 00:29:43;;;;;;;16.33;7.78;;;24.70;99.90;;;;;;5070940;28;20044;-75
2021/11/30 00:32:11;;;;;;;13.75;7.75;;;24.70;99.90;;;;;;5071047;28;20819;-67
2021/11/30 00:34:38;;;;;;;14.75;7.97;;;24.70;99.90;;;;;;5070625;28;20021;-67
2021/11/30 00:37:05;;;;;;;10.88;7.55;;;24.80;99.90;;;;;;5073287;28;20020;-68
2021/11/30 00:39:33;;;;;;;12.90;7.72;;;25.10;99.90;;;;;;5074106;28;20184;-75
2021/11/30 00:42:01;;;;;;;16.75;8.82;;;25.20;99.90;;;;;;5058963;28;20486;-71
2021/11/30 00:44:29;;;;;;;14.60;10.05;;;25.20;99.90;;;;;;5056241;28;20021;-75
2021/11/30 00:46:57;;;;;;;10.70;7.55;;;25.20;99.90;;;;;;5059801;28;20020;-75
2021/11/30 00:49:26;;;;;;;16.48;8.27;;;25.30;99.90;;;;;;5074602;28;20027;-75
2021/11/30 00:51:56;;;;;;;12.93;8.23;;;25.20;99.90;;;;;;5056409;28;20119;-75
2021/11/30 00:54:24;;;;;;;14.65;8.65;;;24.90;99.90;;;;;;5073813;28;20562;-75
2021/11/30 00:56:53;;;;;;;11.15;8.00;;;24.90;99.90;;;;;;5073960;28;20028;-70
2021/11/30 00:59:26;;;;;;;15.77;8.55;;;24.80;99.90;;;;;;5073609;28;20379;-75
2021/11/30 01:01:54;;;;;;;13.25;7.65;;;25.20;99.90;;;;;;5074033;28;20024;-70
2021/11/30 01:04:21;;;;;;;11.55;7.97;;;25.40;99.90;;;;;;5074313;28;20039;-70
2021/11/30 01:06:49;;;;;;;17.40;8.13;;;25.50;99.90;;;;;;5070933;28;20526;-69
2021/11/30 01:09:16;;;;;;;14.48;8.57;;;25.50;99.90;;;;;;5072310;28;20020;-74
2021/11/30 01:11:44;;;;;;;10.63;7.57;;;25.90;99.90;;;;;;5072271;28;20036;-69
2021/11/30 01:14:12;;;;;;;14.32;8.48;;;26.30;99.40;;;;;;5072187;28;20095;-69
2021/11/30 01:16:42;;;;;;;13.43;8.70;;;26.30;99.60;;;;;;5071962;28;20086;-73
2021/11/30 01:19:09;;;;;;;13.18;8.50;;;26.50;99.90;;;;;;5070395;28;20062;-73
2021/11/30 01:21:37;;;;;;;16.73;7.95;;;26.60;99.00;;;;;;5063478;28;20028;-69
2021/11/30 01:24:06;;;;;;;16.90;8.60;;;26.50;99.70;;;;;;5048222;28;20439;-69
2021/11/30 01:26:34;;;;;;;14.95;8.93;;;26.70;98.40;;;;;;5046956;28;20045;-69
2021/11/30 01:29:03;;;;;;;14.00;9.00;;;26.60;98.70;;;;;;5071825;28;20028;-68
2021/11/30 01:31:30;;;;;;;10.15;7.90;;;26.30;98.70;;;;;;5070667;28;20024;-73
2021/11/30 01:33:58;;;;;;;12.77;8.55;;;26.20;99.60;;;;;;5067430;28;20020;-69
2021/11/30 01:36:25;;;;;;;12.00;7.65;;;26.10;99.90;;;;;;5038552;28;20147;-69
2021/11/30 01:38:52;;;;;;;13.75;9.82;;;26.30;99.90;;;;;;5052861;28;20439;-69
2021/11/30 01:41:20;;;;;;;13.85;8.27;;;26.40;99.70;;;;;;5070760;28;20592;-71
2021/11/30 01:43:48;;;;;;;12.55;8.93;;;26.20;99.60;;;;;;5070653;28;20052;-69
2021/11/30 01:46:28;;;;;;;14.52;9.45;;;26.10;99.90;;;;;;5070411;28;20024;-72
2021/11/30 01:51:41;;;;;;;12.90;8.65;;;26.70;99.70;;;;;;5068312;28;20031;-69
2021/11/30 01:54:08;;;;;;;13.70;8.55;;;27.30;99.40;;;;;;5065871;28;20398;-68
2021/11/30 01:56:36;;;;;;;12.90;8.68;;;27.70;97.60;;;;;;5064780;28;20032;-67
2021/11/30 01:59:04;;;;;;;13.18;8.13;;;27.70;97.50;;;;;;5052223;28;20371;-68
2021/11/30 02:01:31;;;;;;;11.95;7.70;;;27.70;97.80;;;;;;5066953;28;20036;-70
2021/11/30 02:03:59;;;;;;;11.73;8.40;;;27.60;97.40;;;;;;5068116;28;20027;-69
2021/11/30 02:06:26;;;;;;;12.77;7.75;;;27.10;98.50;;;;;;5065762;28;20428;-69
2021/11/30 02:08:53;;;;;;;11.38;7.13;;;27.10;98.50;;;;;;5064808;28;20028;-68
2021/11/30 02:11:20;;;;;;;12.23;8.05;;;27.00;98.20;;;;;;5067886;28;20028;-68
2021/11/30 02:13:50;;;;;;;11.30;8.70;;;26.80;98.10;;;;;;5067082;28;20027;-67
2021/11/30 02:16:21;;;;;;;11.77;7.95;;;26.20;99.90;;;;;;5068351;28;20032;-69
2021/11/30 02:18:52;;;;;;;13.52;8.77;;;26.10;99.90;;;;;;5063169;28;20063;-67
2021/11/30 02:21:24;;;;;;;14.05;8.82;;;25.90;99.90;;;;;;5066324;28;20017;-68
2021/11/30 02:26:21;;;;;;;13.80;8.77;;;25.50;99.90;;;;;;5065430;28;20029;-70
2021/11/30 02:28:50;;;;;;;12.05;8.05;;;25.30;99.90;;;;;;5066993;28;20032;-69
2021/11/30 02:31:21;;;;;;;14.27;7.57;;;25.20;99.90;;;;;;5064548;28;20463;-66
2021/11/30 02:33:48;;;;;;;12.88;7.78;;;25.30;99.90;;;;;;5061583;28;20074;-71
2021/11/30 02:36:30;;;;;;;11.00;7.20;;;25.20;99.90;;;;;;5061210;28;20065;-67
2021/11/30 02:39:00;;;;;;;12.55;7.00;;;25.30;99.90;;;;;;5063582;28;20112;-69
2021/11/30 02:41:28;;;;;;;10.32;6.47;;;25.40;99.90;;;;;;5048234;28;20037;-67
2021/11/30 02:43:55;;;;;;;11.13;6.45;;;25.60;99.90;;;;;;5065112;28;20481;-70
2021/11/30 02:46:31;;;;;;;11.82;6.53;;;25.80;99.90;;;;;;5061572;28;20024;-70
2021/11/30 02:48:59;;;;;;;9.98;7.15;;;25.80;99.90;;;;;;5062526;28;20039;-70
2021/11/30 02:51:26;;;;;;;8.90;7.00;;;25.50;99.90;;;;;;5067922;28;20024;-69
2021/11/30 02:53:58;;;;;;;11.18;7.28;;;25.40;99.90;;;;;;5066248;28;20023;-68
2021/11/30 02:56:27;;;;;;;10.63;6.78;;;25.20;99.90;;;;;;5062727;28;20110;-68
2021/11/30 02:58:55;;;;;;;10.10;5.32;;;25.20;99.90;;;;;;5068183;28;20031;-67
2021/11/30 03:01:22;;;;;;;23.52;11.60;;;25.10;99.90;;;;;;5065740;28;20023;-68
2021/11/30 03:03:50;;;;;;;10.60;6.15;;;24.80;99.90;;;;;;5066145;28;20020;-68
2021/11/30 03:06:17;;;;;;;16.52;6.65;;;24.40;99.90;;;;;;5045187;28;20029;-70
2021/11/30 03:08:44;;;;;;;9.13;5.60;;;24.10;99.90;;;;;;5060534;28;20433;-70
2021/11/30 03:11:11;;;;;;;9.80;5.22;;;23.90;99.90;;;;;;5063385;28;20043;-68
2021/11/30 03:13:38;;;;;;;8.98;4.60;;;23.80;99.90;;;;;;5063506;28;20493;-68
2021/11/30 03:16:06;;;;;;;7.82;4.28;;;23.80;99.90;;;;;;5065173;28;20505;-69
2021/11/30 03:18:36;;;;;;;6.32;3.95;;;23.80;99.90;;;;;;5065704;28;20027;-69
2021/11/30 03:21:06;;;;;;;8.80;3.67;;;23.80;99.90;;;;;;5064841;28;20494;-69
2021/11/30 03:23:33;;;;;;;5.97;3.00;;;23.90;99.90;;;;;;5065868;28;20016;-68
2021/11/30 03:26:00;;;;;;;9.15;3.53;;;23.80;99.90;;;;;;5061877;28;20028;-70
2021/11/30 03:28:27;;;;;;;8.27;3.80;;;23.70;99.90;;;;;;5064440;28;20464;-69
2021/11/30 03:31:04;;;;;;;8.13;4.38;;;23.60;99.90;;;;;;5063700;28;20103;-69
2021/11/30 03:36:20;;;;;;;9.10;5.18;;;23.60;99.90;;;;;;5064109;28;20031;-74
2021/11/30 03:38:48;;;;;;;7.00;3.10;;;23.60;99.90;;;;;;5069357;28;20051;-69
2021/11/30 03:41:15;;;;;;;5.93;3.78;;;23.80;99.90;;;;;;5068300;28;20093;-68
2021/11/30 03:43:42;;;;;;;6.65;4.07;;;23.80;99.90;;;;;;5067545;28;20575;-69
2021/11/30 03:46:09;;;;;;;9.63;4.28;;;24.00;99.90;;;;;;5068903;28;20451;-69
2021/11/30 03:48:38;;;;;;;6.97;3.55;;;24.30;99.90;;;;;;5051144;28;20570;-73
2021/11/30 03:51:05;;;;;;;7.43;3.90;;;24.60;99.90;;;;;;5069215;28;20120;-69
2021/11/30 03:53:35;;;;;;;8.00;3.45;;;24.80;99.90;;;;;;5068664;28;20025;-68
2021/11/30 03:56:02;;;;;;;6.97;3.30;;;25.00;99.90;;;;;;4717652;28;10000156;-68
2021/11/30 03:58:30;;;;;;;4.43;3.38;;;25.20;99.90;;;;;;5065550;28;20070;-74
2021/11/30 04:00:57;;;;;;;6.57;3.30;;;25.00;99.90;;;;;;5065876;28;20387;-68
2021/11/30 04:03:27;;;;;;;5.50;2.60;;;25.10;99.90;;;;;;5066166;28;20025;-69
2021/11/30 04:05:55;;;;;;;4.95;2.53;;;25.30;99.90;;;;;;5065288;28;20048;-68
2021/11/30 04:08:22;;;;;;;3.85;2.25;;;25.50;99.90;;;;;;5065418;28;20021;-69
2021/11/30 04:10:49;;;;;;;3.63;2.42;;;25.50;99.90;;;;;;5058053;28;20474;-68
2021/11/30 04:13:16;;;;;;;3.58;2.22;;;25.50;99.90;;;;;;5069807;28;20016;-67
2021/11/30 04:15:43;;;;;;;2.45;1.92;;;25.60;99.90;;;;;;5070338;28;20503;-70
2021/11/30 04:18:11;;;;;;;2.47;1.52;;;26.10;99.90;;;;;;5070747;28;20111;-71
2021/11/30 04:20:41;;;;;;;4.93;2.17;;;26.30;99.90;;;;;;5068635;28;20374;-71
2021/11/30 04:23:11;;;;;;;4.60;1.70;;;26.40;99.90;;;;;;5070119;28;20036;-71
2021/11/30 04:25:41;;;;;;;3.35;1.80;;;26.60;99.90;;;;;;5069384;28;20067;-69
2021/11/30 04:28:08;;;;;;;10.20;7.97;;;26.50;99.90;;;;;;5062612;28;20072;-69
2021/11/30 04:30:36;;;;;;;6.97;5.00;;;26.40;99.90;;;;;;5063796;28;20069;-69
2021/11/30 04:33:03;;;;;;;2.92;1.52;;;26.50;99.90;;;;;;5067726;28;20032;-69
2021/11/30 04:35:31;;;;;;;20.67;10.02;;;26.40;99.90;;;;;;5069184;28;20073;-69
2021/11/30 04:37:59;;;;;;;56.85;30.98;;;26.20;99.90;;;;;;5069649;28;20021;-68
2021/11/30 04:40:26;;;;;;;3.47;2.00;;;26.10;99.90;;;;;;5050102;28;20024;-69
2021/11/30 04:42:53;;;;;;;2.20;1.70;;;25.70;99.90;;;;;;5067705;28;20390;-68
2021/11/30 04:45:26;;;;;;;4.68;2.38;;;25.20;99.90;;;;;;5060010;28;20021;-68
2021/11/30 04:47:55;;;;;;;2.58;2.08;;;24.90;99.90;;;;;;5069592;28;20433;-69
2021/11/30 04:50:26;;;;;;;3.42;2.20;;;24.50;99.90;;;;;;5051390;28;20095;-68
2021/11/30 04:52:56;;;;;;;3.08;2.22;;;24.30;99.90;;;;;;5062802;28;20033;-68
2021/11/30 04:55:29;;;;;;;4.60;2.80;;;24.10;99.90;;;;;;5062314;28;20505;-68
2021/11/30 04:57:58;;;;;;;7.22;2.97;;;23.70;99.90;;;;;;5067401;28;20029;-69
2021/11/30 05:00:27;;;;;;;5.78;2.40;;;23.60;99.90;;;;;;5068293;28;20105;-69
2021/11/30 05:02:54;;;;;;;3.83;2.22;;;23.40;99.90;;;;;;5069172;28;20060;-68
2021/11/30 05:05:22;;;;;;;3.33;2.47;;;23.20;99.90;;;;;;5068034;28;20532;-68
2021/11/30 05:07:49;;;;;;;3.38;2.38;;;23.20;99.90;;;;;;5066126;28;20026;-69
2021/11/30 05:10:19;;;;;;;4.03;2.58;;;23.30;99.90;;;;;;5069065;28;20103;-71
2021/11/30 05:12:48;;;;;;;3.10;2.53;;;23.40;99.90;;;;;;5067134;28;20026;-68
2021/11/30 05:15:15;;;;;;;5.53;2.70;;;23.40;99.90;;;;;;5068267;28;20035;-68
2021/11/30 05:17:42;;;;;;;4.38;2.85;;;23.30;99.90;;;;;;5067195;28;20138;-71
2021/11/30 05:20:11;;;;;;;3.50;2.55;;;23.30;99.90;;;;;;5066168;28;20685;-68
2021/11/30 05:22:39;;;;;;;3.60;2.28;;;23.20;99.90;;;;;;5064943;28;20024;-70
2021/11/30 05:25:07;;;;;;;3.38;2.83;;;23.20;99.90;;;;;;5064147;28;20025;-68
2021/11/30 05:27:44;;;;;;;4.68;2.13;;;23.20;99.90;;;;;;5066372;28;20089;-69
2021/11/30 05:30:15;;;;;;;4.60;3.55;;;23.20;99.90;;;;;;5068116;28;20046;-69
2021/11/30 05:32:52;;;;;;;3.42;2.20;;;23.30;99.90;;;;;;5068144;28;20171;-70
2021/11/30 05:35:22;;;;;;;5.07;2.30;;;23.30;99.90;;;;;;5062683;28;20017;-72
2021/11/30 05:37:49;;;;;;;7.38;6.22;;;23.30;99.90;;;;;;5061302;28;20033;-71
2021/11/30 05:40:16;;;;;;;5.63;3.10;;;23.30;99.90;;;;;;5066155;28;20020;-74
2021/11/30 05:42:44;;;;;;;4.70;2.83;;;23.30;99.90;;;;;;5066326;28;20040;-72
2021/11/30 05:45:11;;;;;;;3.38;2.13;;;23.40;99.90;;;;;;5062483;28;20029;-69
2021/11/30 05:47:38;;;;;;;3.75;2.50;;;23.40;99.90;;;;;;5062285;28;20017;-69
2021/11/30 05:50:05;;;;;;;5.38;2.35;;;23.40;99.90;;;;;;5067111;28;20040;-69
2021/11/30 05:52:33;;;;;;;3.15;2.40;;;23.30;99.90;;;;;;5043188;28;20031;-67
2021/11/30 05:55:00;;;;;;;2.67;2.22;;;23.30;99.90;;;;;;5061912;28;20033;-71
2021/11/30 05:57:27;;;;;;;4.25;2.70;;;23.30;99.90;;;;;;5066570;28;20020;-68
2021/11/30 06:00:00;;;;;;;3.53;1.75;;;23.20;99.90;;;;;;5061117;28;20029;-72
2021/11/30 06:02:31;;;;;;;4.35;2.65;;;23.20;99.90;;;;;;5067368;28;20023;-69
2021/11/30 06:04:58;;;;;;;3.65;2.60;;;23.20;99.90;;;;;;5066570;28;20035;-71
2021/11/30 06:07:28;;;;;;;3.58;2.50;;;23.20;99.90;;;;;;5061605;28;20079;-71
2021/11/30 06:09:58;;;;;;;4.35;2.80;;;23.20;99.90;;;;;;5063689;28;20731;-69
2021/11/30 06:12:28;;;;;;;5.10;2.88;;;23.20;99.90;;;;;;5066903;28;20528;-71
2021/11/30 06:14:58;;;;;;;2.60;2.40;;;23.20;99.90;;;;;;5048407;28;20020;-69
2021/11/30 06:17:25;;;;;;;3.00;2.20;;;23.20;99.90;;;;;;5066530;28;20028;-68
2021/11/30 06:19:52;;;;;;;3.75;2.55;;;23.20;99.90;;;;;;5064981;28;20028;-68
2021/11/30 06:22:19;;;;;;;3.00;2.35;;;23.10;99.90;;;;;;5066107;28;20522;-69
2021/11/30 06:24:47;;;;;;;2.55;1.83;;;23.10;99.90;;;;;;5063386;28;20036;-68
2021/11/30 06:27:15;;;;;;;3.33;1.92;;;23.10;99.90;;;;;;5064995;28;20048;-68
2021/11/30 06:29:42;;;;;;;3.25;1.80;;;23.10;99.90;;;;;;5028809;28;20459;-69
2021/11/30 06:32:13;;;;;;;2.83;2.08;;;23.00;99.90;;;;;;5045270;28;20017;-71
2021/11/30 06:34:40;;;;;;;3.22;2.10;;;22.90;99.90;;;;;;5046104;28;20117;-68
2021/11/30 06:37:08;;;;;;;2.33;1.52;;;22.90;99.90;;;;;;5046371;28;20368;-67
2021/11/30 06:39:38;;;;;;;2.50;2.20;;;22.90;99.90;;;;;;5046469;28;20021;-70
2021/11/30 06:42:06;;;;;;;2.40;1.95;;;22.90;99.90;;;;;;5043399;28;20013;-68
2021/11/30 06:44:35;;;;;;;2.60;1.73;;;22.80;99.90;;;;;;5045569;28;20033;-68
2021/11/30 06:47:06;;;;;;;2.28;1.70;;;22.80;99.90;;;;;;5040235;28;20099;-68
2021/11/30 06:49:33;;;;;;;2.55;1.52;;;22.70;99.90;;;;;;5045689;28;20025;-69
2021/11/30 06:52:00;;;;;;;2.15;1.77;;;22.70;99.90;;;;;;5032083;28;20634;-68
2021/11/30 06:54:28;;;;;;;2.08;1.55;;;22.70;99.90;;;;;;5029445;28;20032;-68
2021/11/30 06:56:55;;;;;;;2.85;1.88;;;22.60;99.90;;;;;;5046307;28;20404;-67
2021/11/30 06:59:25;;;;;;;3.50;2.63;;;22.50;99.90;;;;;;5046135;28;20550;-71
2021/11/30 07:01:52;;;;;;;2.50;1.80;;;22.50;99.90;;;;;;5048410;28;20029;-69
2021/11/30 07:04:20;;;;;;;3.58;2.00;;;22.50;99.90;;;;;;5052917;28;20698;-69
2021/11/30 07:09:33;;;;;;;2.17;1.33;;;22.40;99.90;;;;;;5044167;28;20391;-72
2021/11/30 07:12:49;;;;;;;2.60;2.15;;;22.40;99.90;;;;;;5048832;28;20042;-69
2021/11/30 07:14:51;;;;;;;4.22;2.38;;;22.40;99.90;;;;;;5036214;28;20040;-72
2021/11/30 07:17:18;;;;;;;2.95;2.20;;;22.40;99.90;;;;;;5047638;28;20051;-71
2021/11/30 07:19:45;;;;;;;2.92;1.65;;;22.50;99.90;;;;;;5045101;28;20052;-72
2021/11/30 07:22:12;;;;;;;2.80;1.77;;;22.50;99.90;;;;;;5047231;28;20028;-71
2021/11/30 07:24:39;;;;;;;4.93;3.17;;;22.40;99.90;;;;;;5046333;28;20157;-69
2021/11/30 07:27:06;;;;;;;6.78;4.93;;;22.40;99.90;;;;;;5054476;28;20070;-72
2021/11/30 07:29:34;;;;;;;5.15;3.35;;;22.40;99.90;;;;;;5052409;28;20029;-68
2021/11/30 07:32:01;;;;;;;4.03;2.20;;;22.40;99.90;;;;;;5047619;28;20021;-70
2021/11/30 07:34:29;;;;;;;6.32;3.10;;;22.40;99.90;;;;;;5048894;28;20032;-72
2021/11/30 07:36:56;;;;;;;4.05;2.58;;;22.40;99.90;;;;;;5047281;28;20024;-71
2021/11/30 07:39:24;;;;;;;3.88;1.98;;;22.40;99.90;;;;;;5046726;28;20029;-73
2021/11/30 07:41:51;;;;;;;3.22;2.28;;;22.30;99.90;;;;;;5044677;28;20029;-71
2021/11/30 07:44:18;;;;;;;4.80;2.00;;;22.30;99.90;;;;;;5043333;28;20585;-71
2021/11/30 07:46:46;;;;;;;4.80;2.28;;;22.20;99.90;;;;;;5040865;28;20486;-73
2021/11/30 07:49:13;;;;;;;3.75;2.80;;;22.20;99.90;;;;;;5046899;28;20624;-71
2021/11/30 07:51:43;;;;;;;2.88;1.98;;;22.10;99.90;;;;;;5047008;28;20048;-69
2021/11/30 07:54:11;;;;;;;5.15;3.33;;;22.10;99.90;;;;;;5027886;28;20128;-70
2021/11/30 07:56:38;;;;;;;5.18;1.50;;;22.10;99.90;;;;;;5043961;28;20033;-72
2021/11/30 07:59:06;;;;;;;4.00;1.48;;;22.10;99.90;;;;;;5045861;28;20036;-68
2021/11/30 08:01:33;;;;;;;4.38;1.70;;;22.00;99.90;;;;;;5047921;28;20025;-69
2021/11/30 08:04:00;;;;;;;5.60;4.50;;;22.10;99.90;;;;;;5045145;28;20051;-70
2021/11/30 08:06:28;;;;;;;5.38;2.33;;;22.20;99.90;;;;;;5044749;28;20052;-64
2021/11/30 08:08:56;;;;;;;5.00;2.40;;;22.00;99.90;;;;;;5043940;28;20029;-66
2021/11/30 08:11:23;;;;;;;2.65;1.60;;;21.90;99.90;;;;;;5024797;28;20040;-67
2021/11/30 08:13:50;;;;;;;1.98;1.10;;;21.90;99.90;;;;;;5024352;28;20021;-68
2021/11/30 08:16:17;;;;;;;3.85;1.30;;;21.90;99.90;;;;;;5042536;28;20104;-68
2021/11/30 08:18:45;;;;;;;4.10;2.45;;;21.80;99.90;;;;;;5023112;28;20025;-66
2021/11/30 08:21:12;;;;;;;4.15;1.83;;;21.90;99.90;;;;;;5041983;28;20025;-69
2021/11/30 08:23:39;;;;;;;2.53;1.38;;;21.90;99.90;;;;;;5043724;28;20433;-69
2021/11/30 08:26:10;;;;;;;3.85;2.20;;;21.90;99.90;;;;;;5039705;28;20150;-66
2021/11/30 08:28:37;;;;;;;3.22;1.90;;;21.80;99.90;;;;;;5058901;28;20601;-68
2021/11/30 08:31:04;;;;;;;3.67;1.10;;;21.80;99.90;;;;;;5055968;28;20024;-64
2021/11/30 08:33:32;;;;;;;4.53;2.20;;;21.90;99.90;;;;;;5061237;28;20032;-68
2021/11/30 08:35:59;;;;;;;1.98;0.98;;;21.80;99.90;;;;;;5059592;28;20060;-68
2021/11/30 08:38:26;;;;;;;3.20;1.27;;;21.80;99.90;;;;;;5060186;28;20025;-66
2021/11/30 08:40:55;;;;;;;3.22;1.00;;;21.70;99.90;;;;;;5057095;28;20052;-69
2021/11/30 08:43:22;;;;;;;2.28;0.90;;;21.70;99.90;;;;;;5057243;28;20029;-68
2021/11/30 08:45:50;;;;;;;1.75;0.52;;;21.60;99.90;;;;;;5056123;28;20043;-69
2021/11/30 08:48:17;;;;;;;1.13;0.68;;;21.70;99.90;;;;;;5056983;28;20368;-69
2021/11/30 08:50:44;;;;;;;2.13;0.85;;;21.70;99.90;;;;;;5058605;28;20043;-65
2021/11/30 08:53:12;;;;;;;1.40;0.68;;;21.70;99.90;;;;;;5060462;28;20098;-64
2021/11/30 08:55:39;;;;;;;1.30;0.70;;;21.60;99.90;;;;;;5062386;28;20120;-66
2021/11/30 08:58:06;;;;;;;1.65;0.80;;;21.60;99.90;;;;;;5061537;28;20025;-68
2021/11/30 09:00:34;;;;;;;1.90;0.95;;;21.60;99.90;;;;;;5065254;28;20115;-68
2021/11/30 09:03:02;;;;;;;1.33;0.82;;;21.60;99.90;;;;;;5059084;28;20024;-68
2021/11/30 09:05:29;;;;;;;3.00;1.25;;;21.60;99.90;;;;;;5059423;28;20025;-64
2021/11/30 09:07:57;;;;;;;3.17;1.50;;;21.60;99.90;;;;;;5044777;28;20035;-66
2021/11/30 09:10:25;;;;;;;5.35;1.13;;;21.50;99.90;;;;;;5062614;28;20033;-68
2021/11/30 09:12:53;;;;;;;3.97;1.10;;;21.40;99.90;;;;;;5063944;28;20077;-70
2021/11/30 09:15:20;;;;;;;2.78;0.95;;;21.40;99.90;;;;;;5059655;28;20472;-67
2021/11/30 09:17:49;;;;;;;1.27;0.82;;;21.50;99.90;;;;;;5060614;28;20491;-69
2021/11/30 09:20:17;;;;;;;1.30;0.98;;;21.40;99.90;;;;;;5059467;28;20059;-67
2021/11/30 09:22:45;;;;;;;2.15;1.42;;;21.30;99.90;;;;;;5060537;28;20055;-70
2021/11/30 09:25:12;;;;;;;3.83;1.50;;;21.20;99.90;;;;;;5060128;28;20017;-66
2021/11/30 09:27:40;;;;;;;2.38;1.17;;;21.20;99.90;;;;;;5058349;28;20127;-70
2021/11/30 09:30:10;;;;;;;1.63;0.75;;;21.20;99.90;;;;;;5061491;28;20027;-69
2021/11/30 09:32:40;;;;;;;3.08;1.02;;;21.20;99.90;;;;;;5058528;28;20025;-70
2021/11/30 09:35:12;;;;;;;4.07;1.13;;;21.20;99.90;;;;;;5065264;28;20028;-66
2021/11/30 09:37:40;;;;;;;1.33;1.00;;;21.10;99.90;;;;;;5060657;28;20028;-66
2021/11/30 09:40:11;;;;;;;1.10;0.90;;;21.00;99.90;;;;;;5060518;28;20024;-67
2021/11/30 09:42:47;;;;;;;1.75;0.90;;;21.10;99.90;;;;;;5061573;28;20470;-66
2021/11/30 09:45:14;;;;;;;1.83;0.70;;;21.10;99.90;;;;;;5060389;28;20032;-69
2021/11/30 09:47:43;;;;;;;2.97;1.20;;;21.10;99.90;;;;;;5063707;28;20290;-70
2021/11/30 09:50:15;;;;;;;2.10;0.80;;;21.10;99.90;;;;;;5063499;28;20067;-69
2021/11/30 09:52:43;;;;;;;1.00;0.70;;;21.00;99.90;;;;;;5062417;28;20032;-68
2021/11/30 09:55:17;;;;;;;2.05;0.80;;;21.00;99.90;;;;;;5060301;28;20116;-70
2021/11/30 09:57:45;;;;;;;2.80;0.82;;;20.90;99.90;;;;;;5060103;28;20028;-68
2021/11/30 10:00:14;;;;;;;2.40;1.20;;;20.90;99.90;;;;;;5056351;28;20421;-70
2021/11/30 10:02:41;;;;;;;4.97;3.65;;;20.80;99.90;;;;;;5055829;28;20029;-72
2021/11/30 10:05:09;;;;;;;3.90;2.50;;;20.80;99.90;;;;;;5056369;28;20035;-67
2021/11/30 10:07:46;;;;;;;3.75;1.80;;;20.80;99.90;;;;;;5056338;28;20042;-69
2021/11/30 10:10:16;;;;;;;3.08;1.83;;;20.80;99.90;;;;;;5056281;28;20028;-69
2021/11/30 10:12:53;;;;;;;1.52;0.98;;;20.80;99.90;;;;;;5057951;28;20632;-67
2021/11/30 10:15:20;;;;;;;3.55;1.40;;;20.80;99.90;;;;;;5060636;28;20678;-66
2021/11/30 10:17:47;;;;;;;1.80;0.90;;;20.80;99.90;;;;;;5063177;28;20021;-68
2021/11/30 10:20:16;;;;;;;1.75;1.00;;;20.80;99.90;;;;;;5062480;28;20139;-72
2021/11/30 10:22:55;;;;;;;3.53;1.48;;;20.80;99.90;;;;;;5059770;28;20032;-68
2021/11/30 10:25:38;;;;;;;1.05;0.80;;;20.70;99.90;;;;;;5058169;28;20043;-69
2021/11/30 10:28:16;;;;;;;2.33;0.88;;;20.70;99.90;;;;;;5110390;22;20588;-69
2021/11/30 10:30:50;;;;;;;2.83;0.70;;;20.70;99.90;;;;;;5061077;28;20071;-74
2021/11/30 10:33:19;;;;;;;1.30;0.85;;;20.70;99.90;;;;;;5062510;28;20398;-69
2021/11/30 10:35:53;;;;;;;1.90;1.02;;;20.70;99.90;;;;;;5061011;28;20029;-68
2021/11/30 10:38:22;;;;;;;2.38;0.80;;;20.70;99.90;;;;;;5062325;28;20024;-70
2021/11/30 10:40:49;;;;;;;2.60;1.15;;;20.70;99.90;;;;;;5062916;28;20024;-69
2021/11/30 10:43:18;;;;;;;1.45;0.80;;;20.70;99.90;;;;;;5065444;28;20469;-70
2021/11/30 10:45:47;;;;;;;2.72;0.75;;;20.60;99.90;;;;;;5064069;28;20441;-70
2021/11/30 10:48:14;;;;;;;3.22;1.20;;;20.60;99.90;;;;;;5061890;28;20056;-69
2021/11/30 10:50:47;;;;;;;1.50;0.70;;;20.50;99.90;;;;;;5066432;28;20024;-73
2021/11/30 10:53:16;;;;;;;2.38;0.80;;;20.50;99.90;;;;;;5065052;28;20149;-69
2021/11/30 10:55:50;;;;;;;2.55;0.98;;;20.40;99.90;;;;;;5062026;28;20526;-71
2021/11/30 10:58:19;;;;;;;0.65;0.52;;;20.30;99.90;;;;;;5065393;28;20131;-69
2021/11/30 11:00:47;;;;;;;2.85;0.80;;;20.30;99.90;;;;;;5058447;28;20025;-69
2021/11/30 11:03:23;;;;;;;2.35;1.00;;;20.30;99.90;;;;;;5063703;28;20057;-71
2021/11/30 11:08:44;;;;;;;7.85;6.85;;;20.30;99.90;;;;;;5063444;28;20036;-70
2021/11/30 11:11:17;;;;;;;5.25;2.42;;;20.20;99.90;;;;;;5049375;28;20021;-71
2021/11/30 11:13:44;;;;;;;5.28;3.38;;;20.20;99.90;;;;;;5060592;28;20581;-70
2021/11/30 11:16:36;;;;;;;2.65;1.10;;;20.20;99.90;;;;;;5063883;28;20542;-72
2021/11/30 11:19:09;;;;;;;5.57;5.00;;;20.20;99.90;;;;;;5062382;28;20111;-69
2021/11/30 11:21:36;;;;;;;;;;;20.20;99.90;;;;;;5061544;28;20070;-68
2021/11/30 11:24:13;;;;;;;4.97;2.20;;;20.20;99.90;;;;;;5063672;28;19908;-71
2021/11/30 11:26:48;;;;;;;2.30;1.65;;;20.20;99.90;;;;;;5067171;28;20065;-69
2021/11/30 11:29:18;;;;;;;3.47;1.90;;;20.20;99.90;;;;;;5065282;28;20047;-68
2021/11/30 11:32:00;;;;;;;4.88;2.40;;;20.30;99.90;;;;;;5062953;28;20401;-71
2021/11/30 11:34:30;;;;;;;5.80;3.15;;;20.30;99.90;;;;;;5047894;28;20059;-69
2021/11/30 11:37:00;;;;;;;3.83;3.00;;;20.30;99.90;;;;;;5063441;28;20055;-69
2021/11/30 11:39:28;;;;;;;7.88;6.70;;;20.30;99.90;;;;;;5063386;28;20115;-71
2021/11/30 11:41:58;;;;;;;7.18;6.00;;;20.20;99.90;;;;;;5065000;28;20052;-69
2021/11/30 11:44:25;;;;;;;3.35;2.58;;;20.30;99.90;;;;;;5062146;28;20157;-68
2021/11/30 11:46:58;;;;;;;4.38;2.60;;;20.20;99.90;;;;;;5064741;28;20032;-71
2021/11/30 11:49:26;;;;;;;;;;;20.20;99.90;;;;;;5065069;28;20103;-68
2021/11/30 11:51:55;;;;;;;3.28;2.28;;;20.10;99.90;;;;;;5064864;28;19908;-70
2021/11/30 11:54:32;;;;;;;3.10;2.58;;;20.10;99.90;;;;;;5064646;28;20086;-68
2021/11/30 11:57:00;;;;;;;3.42;2.40;;;20.10;99.90;;;;;;5063088;28;20028;-68
2021/11/30 11:59:35;;;;;;;3.33;2.03;;;20.20;99.90;;;;;;5063642;28;20028;-70
2021/11/30 12:02:25;;;;;;;4.03;2.85;;;20.20;99.90;;;;;;5063585;28;20052;-68
2021/11/30 12:04:56;;;;;;;5.00;3.40;;;20.20;99.90;;;;;;5065498;28;20151;-69
2021/11/30 12:07:26;;;;;;;4.32;2.85;;;20.10;99.90;;;;;;5064001;28;20395;-72
2021/11/30 12:10:21;;;;;;;4.65;2.30;;;20.10;99.90;;;;;;5063266;28;20020;-69
2021/11/30 12:13:17;;;;;;;3.28;2.28;;;20.10;99.90;;;;;;5063626;28;20029;-69
2021/11/30 12:16:06;;;;;;;5.13;1.60;;;20.10;99.90;;;;;;5064364;28;20043;-69
2021/11/30 12:18:47;;;;;;;2.53;1.83;;;20.10;99.90;;;;;;5063093;28;20815;-70
2021/11/30 12:21:21;;;;;;;2.15;1.45;;;20.10;99.90;;;;;;5065936;28;20335;-72
2021/11/30 12:23:56;;;;;;;2.28;1.35;;;20.10;99.90;;;;;;5065984;28;20025;-69
2021/11/30 12:26:37;;;;;;;1.70;1.27;;;20.10;99.90;;;;;;5063784;28;20028;-71
2021/11/30 12:29:30;;;;;;;1.85;1.25;;;20.20;99.90;;;;;;5064680;28;20669;-71
2021/11/30 12:31:58;;;;;;;2.97;1.52;;;20.10;99.90;;;;;;5059951;28;20036;-72
2021/11/30 12:34:33;;;;;;;3.45;1.70;;;20.20;99.90;;;;;;5067947;28;20036;-69
2021/11/30 12:37:33;;;;;;;2.00;1.45;;;20.20;99.90;;;;;;5066171;28;20024;-67
2021/11/30 12:40:08;;;;;;;1.83;1.50;;;20.30;99.90;;;;;;5067413;28;20017;-69
2021/11/30 12:42:41;;;;;;;1.88;1.42;;;20.30;99.90;;;;;;5068153;28;20024;-69
2021/11/30 12:45:43;;;;;;;3.20;1.48;;;20.30;99.90;;;;;;5066893;28;20599;-70
2021/11/30 12:48:18;;;;;;;2.45;1.40;;;20.30;99.90;;;;;;5067041;28;20546;-71
2021/11/30 12:50:45;;;;;;;3.08;1.50;;;20.30;99.90;;;;;;5068006;28;20029;-69
2021/11/30 12:53:13;;;;;;;3.47;1.30;;;20.30;99.90;;;;;;5046334;28;20283;-71
2021/11/30 12:55:53;;;;;;;6.55;1.60;;;20.30;99.90;;;;;;5052186;28;20592;-68
2021/11/30 12:58:39;;;;;;;2.08;1.50;;;20.20;99.90;;;;;;5071272;28;20016;-68
2021/11/30 13:01:22;;;;;;;4.07;1.38;;;20.30;99.90;;;;;;5071718;28;20028;-70
2021/11/30 13:03:52;;;;;;;2.90;1.25;;;20.20;99.90;;;;;;5069243;28;20629;-69
2021/11/30 13:06:19;;;;;;;5.18;1.80;;;20.30;99.90;;;;;;5069851;28;20055;-69
2021/11/30 13:09:09;;;;;;;2.78;1.73;;;20.30;99.90;;;;;;5069950;28;20112;-71
2021/11/30 13:11:36;;;;;;;4.00;2.83;;;20.30;99.90;;;;;;5068887;28;20127;-70
2021/11/30 13:14:07;;;;;;;3.45;2.22;;;20.30;99.90;;;;;;5062688;28;20470;-70
2021/11/30 13:16:36;;;;;;;4.60;2.45;;;20.30;99.90;;;;;;5068956;28;20141;-70